Time;durP1;ratioP1;P1;durP2;ratioP2;P2;SDS_P1;SDS_P2;PMS_P1;PMS_P2;Temp;Humidity;BMP_temperature;BMP_pressure;BME280_temperature;BME280_humidity;BME280_pressure;Samples;Min_cycle;Max_cycle;Signal;HPM_P1;HPM_P2
2021/09/02 00:00:36;;;;;;;5.60;4.25;;;435.70;1868.80;;;;;;5053392;28;20086;-72
2021/09/02 00:03:02;;;;;;;7.95;4.70;;;435.70;1868.80;;;;;;5053756;28;20474;-72
2021/09/02 00:05:28;;;;;;;8.93;4.75;;;435.80;1868.80;;;;;;5053366;28;20025;-72
2021/09/02 00:07:54;;;;;;;6.93;4.00;;;435.80;1868.80;;;;;;5053533;28;20064;-73
2021/09/02 00:10:20;;;;;;;7.30;4.93;;;435.80;1868.80;;;;;;5035327;28;20036;-72
2021/09/02 00:12:46;;;;;;;5.88;4.25;;;435.80;1868.80;;;;;;5053962;28;20029;-72
2021/09/02 00:15:12;;;;;;;7.50;4.53;;;435.80;1868.80;;;;;;5053081;28;20029;-72
2021/09/02 00:17:37;;;;;;;8.10;5.50;;;435.90;1843.20;;;;;;5053788;28;20036;-72
2021/09/02 00:20:05;;;;;;;8.57;4.57;;;435.80;1868.80;;;;;;5052835;28;20115;-72
2021/09/02 00:22:31;;;;;;;6.53;4.93;;;435.80;1868.80;;;;;;5053930;28;20209;-72
2021/09/02 00:24:57;;;;;;;6.00;4.63;;;435.80;1868.80;;;;;;5053824;28;20049;-72
2021/09/02 00:27:22;;;;;;;7.18;4.72;;;435.80;1843.20;;;;;;5053771;28;20029;-72
2021/09/02 00:29:48;;;;;;;10.57;5.00;;;435.80;1843.20;;;;;;5053366;28;20459;-72
2021/09/02 00:32:15;;;;;;;6.38;5.32;;;435.70;1868.80;;;;;;5053599;28;20025;-72
2021/09/02 00:34:41;;;;;;;5.72;4.60;;;435.80;1868.80;;;;;;5035677;28;20036;-72
2021/09/02 00:37:07;;;;;;;7.97;5.50;;;435.70;1843.20;;;;;;5053094;28;20029;-72
2021/09/02 00:39:32;;;;;;;7.45;5.55;;;435.70;1868.80;;;;;;5053450;28;20047;-73
2021/09/02 00:41:58;;;;;;;7.85;5.65;;;435.70;1868.80;;;;;;5035505;28;20037;-72
2021/09/02 00:44:42;;;;;;;7.70;5.32;;;435.70;1868.80;;;;;;5052005;28;20036;-72
2021/09/02 00:47:21;;;;;;;8.65;5.10;;;435.70;1868.80;;;;;;5035513;28;20017;-72
2021/09/02 00:49:47;;;;;;;6.93;4.57;;;435.70;1868.80;;;;;;5053617;28;20056;-72
2021/09/02 00:52:17;;;;;;;6.57;5.00;;;435.70;1868.80;;;;;;5053548;28;20471;-72
2021/09/02 00:54:47;;;;;;;6.25;5.15;;;435.70;1868.80;;;;;;5056098;28;20036;-72
2021/09/02 00:57:25;;;;;;;7.88;5.03;;;435.60;1868.80;;;;;;5057313;28;20025;-72
2021/09/02 00:59:53;;;;;;;7.35;4.68;;;435.60;1868.80;;;;;;5056352;28;20155;-72
2021/09/02 01:02:27;;;;;;;8.15;5.90;;;435.60;1868.80;;;;;;5057042;28;20037;-72
2021/09/02 01:04:57;;;;;;;9.73;5.40;;;435.60;1894.40;;;;;;5057371;28;20045;-72
2021/09/02 01:07:25;;;;;;;5.97;5.03;;;435.60;1894.40;;;;;;5056778;28;20053;-72
2021/09/02 01:09:55;;;;;;;8.80;5.47;;;435.50;1894.40;;;;;;5038580;28;20126;-72
2021/09/02 01:12:28;;;;;;;6.90;5.50;;;435.50;1894.40;;;;;;5056843;28;20032;-72
2021/09/02 01:14:55;;;;;;;7.75;4.93;;;435.40;1894.40;;;;;;5056791;28;20466;-72
2021/09/02 01:17:22;;;;;;;9.80;4.88;;;435.40;1894.40;;;;;;5056810;28;20032;-72
2021/09/02 01:19:50;;;;;;;7.30;5.28;;;435.40;1894.40;;;;;;5056582;28;20032;-72
2021/09/02 01:22:16;;;;;;;6.82;4.75;;;435.40;1894.40;;;;;;5056796;28;20033;-72
2021/09/02 01:24:43;;;;;;;8.88;5.15;;;435.30;1894.40;;;;;;5056809;28;20029;-72
2021/09/02 01:27:09;;;;;;;8.15;5.57;;;435.30;1894.40;;;;;;5056693;28;20025;-72
2021/09/02 01:29:34;;;;;;;7.53;5.28;;;435.30;1894.40;;;;;;5056513;28;20466;-72
2021/09/02 01:32:00;;;;;;;10.65;5.93;;;435.30;1894.40;;;;;;5056549;28;20428;-72
2021/09/02 01:34:26;;;;;;;9.68;5.65;;;435.30;1894.40;;;;;;5056662;28;20025;-72
2021/09/02 01:36:51;;;;;;;9.55;5.68;;;435.30;1894.40;;;;;;5056322;28;20028;-72
2021/09/02 01:39:19;;;;;;;8.10;5.40;;;435.20;1920.00;;;;;;5056633;28;20032;-72
2021/09/02 01:41:45;;;;;;;11.80;5.80;;;435.20;1920.00;;;;;;5038435;28;20029;-72
2021/09/02 01:44:11;;;;;;;7.32;5.28;;;435.20;1920.00;;;;;;5056436;28;20140;-72
2021/09/02 01:46:36;;;;;;;9.75;5.53;;;410.50;1920.00;;;;;;5056014;28;20356;-72
2021/09/02 01:49:03;;;;;;;12.00;5.63;;;410.40;1920.00;;;;;;5038382;28;20036;-72
2021/09/02 01:51:28;;;;;;;5.03;4.45;;;410.40;1920.00;;;;;;5056397;28;20032;-72
2021/09/02 01:53:54;;;;;;;6.53;4.82;;;410.30;1920.00;;;;;;5056295;28;20025;-72
2021/09/02 01:56:20;;;;;;;11.02;5.60;;;410.30;1920.00;;;;;;5055627;28;20059;-71
2021/09/02 01:58:46;;;;;;;7.28;5.75;;;410.30;1920.00;;;;;;5056260;28;20033;-72
2021/09/02 02:01:12;;;;;;;7.78;4.97;;;410.20;1920.00;;;;;;5055116;28;20028;-72
2021/09/02 02:03:37;;;;;;;9.52;4.80;;;410.20;1920.00;;;;;;5056082;28;20116;-71
2021/09/02 02:06:03;;;;;;;6.68;5.05;;;410.10;1920.00;;;;;;5054513;28;20096;-72
2021/09/02 02:08:29;;;;;;;8.25;5.45;;;410.10;1920.00;;;;;;5055906;28;20052;-71
2021/09/02 02:10:55;;;;;;;8.88;5.63;;;410.10;1920.00;;;;;;5055965;28;20082;-71
2021/09/02 02:13:20;;;;;;;9.15;5.60;;;410.10;1920.00;;;;;;5056053;28;20025;-71
2021/09/02 02:15:46;;;;;;;9.48;5.25;;;410.10;1920.00;;;;;;5037724;28;20364;-71
2021/09/02 02:18:12;;;;;;;6.13;4.97;;;410.10;1920.00;;;;;;5055796;28;20029;-71
2021/09/02 02:20:37;;;;;;;7.15;5.10;;;410.00;1945.60;;;;;;5055996;28;20523;-71
2021/09/02 02:23:03;;;;;;;8.05;5.57;;;410.00;1945.60;;;;;;5037710;28;20049;-71
2021/09/02 02:25:29;;;;;;;6.97;5.65;;;410.00;1945.60;;;;;;5055743;28;20028;-71
2021/09/02 02:27:55;;;;;;;6.28;4.90;;;410.00;1945.60;;;;;;5055545;28;20131;-71
2021/09/02 02:30:22;;;;;;;8.98;5.70;;;409.90;1945.60;;;;;;5055345;28;20036;-71
2021/09/02 02:32:48;;;;;;;7.40;4.95;;;409.90;1945.60;;;;;;5055406;28;20051;-71
2021/09/02 02:35:14;;;;;;;8.55;5.57;;;409.90;1945.60;;;;;;5055190;28;20071;-71
2021/09/02 02:37:40;;;;;;;8.00;5.65;;;409.80;1945.60;;;;;;5055408;28;20024;-71
2021/09/02 02:40:08;;;;;;;10.73;5.47;;;409.80;1945.60;;;;;;5055358;28;20104;-71
2021/09/02 02:42:34;;;;;;;7.88;5.50;;;409.80;1945.60;;;;;;5055269;28;20025;-71
2021/09/02 02:45:00;;;;;;;7.65;5.60;;;409.80;1945.60;;;;;;5054845;28;20025;-71
2021/09/02 02:47:25;;;;;;;8.90;5.93;;;409.70;1945.60;;;;;;5055314;28;20029;-71
2021/09/02 02:49:51;;;;;;;7.95;6.05;;;409.70;1971.20;;;;;;5037246;28;20415;-71
2021/09/02 02:52:17;;;;;;;7.70;5.82;;;409.70;1945.60;;;;;;5055210;28;20029;-72
2021/09/02 02:54:42;;;;;;;7.85;6.00;;;409.70;1945.60;;;;;;5055432;28;20104;-71
2021/09/02 02:57:08;;;;;;;8.70;5.90;;;409.70;1945.60;;;;;;5055192;28;20352;-71
2021/09/02 02:59:34;;;;;;;9.60;6.00;;;409.70;1945.60;;;;;;5055116;28;20112;-72
2021/09/02 03:02:00;;;;;;;9.45;6.40;;;409.70;1945.60;;;;;;5054788;28;20089;-72
2021/09/02 03:04:25;;;;;;;9.68;5.97;;;409.70;1971.20;;;;;;5054815;28;20028;-71
2021/09/02 03:06:51;;;;;;;9.23;5.90;;;409.70;1945.60;;;;;;5054212;28;20388;-71
2021/09/02 03:09:17;;;;;;;8.63;6.30;;;409.70;1945.60;;;;;;5054839;28;20111;-71
2021/09/02 03:11:45;;;;;;;9.65;6.25;;;409.70;1945.60;;;;;;5054800;28;20040;-72
2021/09/02 03:14:11;;;;;;;11.02;5.90;;;409.70;1971.20;;;;;;5033649;28;20021;-72
2021/09/02 03:16:37;;;;;;;18.60;8.20;;;409.70;1971.20;;;;;;5053832;28;20366;-72
2021/09/02 03:19:03;;;;;;;26.63;7.47;;;409.60;1971.20;;;;;;5054728;28;20025;-73
2021/09/02 03:21:28;;;;;;;10.80;6.05;;;409.70;1971.20;;;;;;5036595;28;20112;-72
2021/09/02 03:23:54;;;;;;;13.35;5.18;;;409.70;1971.20;;;;;;5054595;28;20033;-72
2021/09/02 03:26:20;;;;;;;8.48;5.78;;;409.60;1971.20;;;;;;5054550;28;20420;-72
2021/09/02 03:28:46;;;;;;;7.88;6.25;;;384.90;1945.60;;;;;;5054104;28;20067;-72
2021/09/02 03:31:11;;;;;;;8.77;5.72;;;384.90;1945.60;;;;;;5054210;28;20087;-73
2021/09/02 03:33:37;;;;;;;9.25;5.65;;;384.80;1945.60;;;;;;5054382;28;20078;-72
2021/09/02 03:36:04;;;;;;;9.85;7.30;;;384.80;1945.60;;;;;;5036481;28;20017;-72
2021/09/02 03:38:30;;;;;;;10.10;5.55;;;384.70;1945.60;;;;;;5054109;28;20532;-73
2021/09/02 03:40:55;;;;;;;12.40;6.00;;;384.70;1945.60;;;;;;5053922;28;20116;-72
2021/09/02 03:43:21;;;;;;;12.88;6.50;;;384.70;1945.60;;;;;;5054235;28;20073;-72
2021/09/02 03:45:48;;;;;;;9.48;6.00;;;384.60;1945.60;;;;;;5053875;28;20021;-72
2021/09/02 03:48:14;;;;;;;8.93;5.80;;;384.60;1945.60;;;;;;5053861;28;20025;-72
2021/09/02 03:50:40;;;;;;;10.85;6.18;;;384.50;1945.60;;;;;;5054144;28;20048;-71
2021/09/02 03:53:06;;;;;;;8.25;5.53;;;384.50;1945.60;;;;;;5053783;28;20478;-72
2021/09/02 03:55:32;;;;;;;12.25;5.90;;;384.50;1945.60;;;;;;5054045;28;20029;-69
2021/09/02 03:57:57;;;;;;;10.93;5.65;;;384.40;1945.60;;;;;;5054066;28;20031;-69
2021/09/02 04:00:23;;;;;;;11.63;6.55;;;384.40;1945.60;;;;;;5053969;28;20025;-69
2021/09/02 04:02:49;;;;;;;9.15;6.80;;;384.40;1945.60;;;;;;5053722;28;20055;-69
2021/09/02 04:05:14;;;;;;;10.02;6.78;;;384.40;1945.60;;;;;;5053884;28;20021;-69
2021/09/02 04:07:40;;;;;;;11.18;6.03;;;384.40;1945.60;;;;;;5053520;28;20045;-69
2021/09/02 04:10:06;;;;;;;8.82;6.15;;;384.40;1945.60;;;;;;5053912;28;20344;-69
2021/09/02 04:12:32;;;;;;;9.90;6.32;;;384.30;1971.20;;;;;;5053727;28;20466;-69
2021/09/02 04:14:58;;;;;;;12.38;6.13;;;384.20;1971.20;;;;;;5053855;28;20032;-69
2021/09/02 04:17:24;;;;;;;17.50;7.40;;;384.20;1971.20;;;;;;5053676;28;20025;-69
2021/09/02 04:19:50;;;;;;;13.00;7.07;;;384.20;1971.20;;;;;;5053136;28;20382;-69
2021/09/02 04:22:16;;;;;;;11.32;6.90;;;384.20;1971.20;;;;;;5053599;28;20033;-69
2021/09/02 04:24:42;;;;;;;11.23;6.50;;;384.20;1971.20;;;;;;5053677;28;20024;-69
2021/09/02 04:27:10;;;;;;;11.05;6.80;;;384.20;1945.60;;;;;;5053518;28;20436;-69
2021/09/02 04:29:36;;;;;;;9.23;6.65;;;384.20;1971.20;;;;;;5058825;28;20021;-69
2021/09/02 04:32:02;;;;;;;9.88;6.80;;;384.20;1971.20;;;;;;5060167;28;20025;-69
2021/09/02 04:34:28;;;;;;;8.75;6.22;;;384.10;1971.20;;;;;;5060122;28;20060;-69
2021/09/02 04:36:54;;;;;;;10.40;6.63;;;384.10;1971.20;;;;;;5060019;28;20074;-69
2021/09/02 04:39:19;;;;;;;13.80;6.45;;;384.10;1971.20;;;;;;5042357;28;20029;-69
2021/09/02 04:41:45;;;;;;;9.02;6.28;;;384.10;1971.20;;;;;;5060196;28;20044;-69
2021/09/02 04:44:11;;;;;;;8.52;6.38;;;384.10;1971.20;;;;;;5060121;28;20025;-69
2021/09/02 04:46:36;;;;;;;9.88;7.15;;;384.10;1971.20;;;;;;5042116;28;20116;-69
2021/09/02 04:49:02;;;;;;;11.05;6.75;;;384.20;1996.80;;;;;;5060167;28;20029;-69
2021/09/02 04:51:28;;;;;;;10.50;7.63;;;384.20;1971.20;;;;;;5059909;28;20406;-69
2021/09/02 04:53:53;;;;;;;9.32;7.03;;;384.20;1971.20;;;;;;5060091;28;20021;-69
2021/09/02 04:56:19;;;;;;;11.90;7.18;;;384.20;1971.20;;;;;;5060074;28;20059;-69
2021/09/02 04:58:45;;;;;;;8.35;6.50;;;384.30;1971.20;;;;;;5060509;28;20021;-69
2021/09/02 05:01:10;;;;;;;8.65;7.18;;;384.30;1971.20;;;;;;5059789;28;20467;-69
2021/09/02 05:03:39;;;;;;;10.32;7.15;;;384.40;1971.20;;;;;;5060084;28;20033;-69
2021/09/02 05:06:04;;;;;;;14.15;7.57;;;384.40;1971.20;;;;;;5059934;28;20024;-69
2021/09/02 05:08:30;;;;;;;12.43;6.70;;;384.40;1971.20;;;;;;5041801;28;20059;-69
2021/09/02 05:10:56;;;;;;;9.15;6.93;;;384.50;1971.20;;;;;;5060060;28;20021;-69
2021/09/02 05:13:21;;;;;;;10.73;6.55;;;384.50;1971.20;;;;;;5059993;28;20025;-69
2021/09/02 05:15:47;;;;;;;10.48;6.85;;;384.50;1971.20;;;;;;5059755;28;20021;-69
2021/09/02 05:18:13;;;;;;;14.50;7.65;;;384.60;1971.20;;;;;;5059823;28;20407;-69
2021/09/02 05:20:39;;;;;;;14.70;8.63;;;384.60;1971.20;;;;;;5059953;28;20394;-69
2021/09/02 05:23:04;;;;;;;12.45;6.40;;;384.70;1971.20;;;;;;5059846;28;20041;-69
2021/09/02 05:25:30;;;;;;;12.05;7.72;;;384.80;1971.20;;;;;;5059986;28;20363;-69
2021/09/02 05:27:56;;;;;;;10.88;8.05;;;384.80;1971.20;;;;;;5059797;28;20040;-69
2021/09/02 05:30:22;;;;;;;11.13;8.30;;;384.80;1971.20;;;;;;5059458;28;20528;-69
2021/09/02 05:32:48;;;;;;;16.33;7.22;;;384.90;1971.20;;;;;;5059827;28;20037;-69
2021/09/02 05:35:14;;;;;;;11.73;7.28;;;384.90;1971.20;;;;;;5059297;28;20048;-68
2021/09/02 05:37:40;;;;;;;8.98;6.95;;;409.60;1996.80;;;;;;5059691;28;20029;-70
2021/09/02 05:40:07;;;;;;;10.85;7.50;;;409.60;1996.80;;;;;;5057113;28;20024;-69
2021/09/02 05:42:33;;;;;;;10.88;7.72;;;409.70;1996.80;;;;;;5056573;28;20490;-69
2021/09/02 05:44:59;;;;;;;12.80;8.30;;;409.70;1971.20;;;;;;5056067;28;20032;-68
2021/09/02 05:47:25;;;;;;;10.45;7.65;;;409.70;1971.20;;;;;;5055513;28;20091;-70
2021/09/02 05:49:51;;;;;;;13.40;9.05;;;409.80;1971.20;;;;;;5056161;28;20025;-69
2021/09/02 05:52:17;;;;;;;10.00;7.72;;;409.80;1971.20;;;;;;5056416;28;20030;-70
2021/09/02 05:54:42;;;;;;;11.00;7.95;;;409.90;1971.20;;;;;;5055765;28;20044;-68
2021/09/02 05:57:08;;;;;;;11.50;7.70;;;410.00;1971.20;;;;;;5055784;28;20025;-66
2021/09/02 05:59:34;;;;;;;20.25;8.90;;;410.00;1971.20;;;;;;5055818;28;20094;-68
2021/09/02 06:02:00;;;;;;;21.75;8.20;;;410.00;1996.80;;;;;;5037870;28;20060;-69
2021/09/02 06:04:26;;;;;;;16.35;8.27;;;410.10;1996.80;;;;;;5038061;28;20052;-69
2021/09/02 06:06:51;;;;;;;15.23;8.27;;;410.10;1971.20;;;;;;5055560;28;20405;-69
2021/09/02 06:09:17;;;;;;;13.95;8.13;;;410.20;1971.20;;;;;;5037731;28;20033;-69
2021/09/02 06:11:43;;;;;;;17.77;9.05;;;410.30;1996.80;;;;;;5055306;28;20025;-68
2021/09/02 06:14:08;;;;;;;19.83;8.68;;;410.30;1971.20;;;;;;5055400;28;20060;-69
2021/09/02 06:16:34;;;;;;;16.15;7.55;;;410.30;1971.20;;;;;;5055624;28;20021;-69
2021/09/02 06:19:00;;;;;;;10.52;7.57;;;410.30;1971.20;;;;;;5055488;28;20043;-68
2021/09/02 06:21:25;;;;;;;13.15;8.40;;;410.40;1945.60;;;;;;5055851;28;20029;-69
2021/09/02 06:23:51;;;;;;;14.80;8.63;;;410.40;1971.20;;;;;;5037447;28;20041;-69
2021/09/02 06:26:17;;;;;;;12.77;8.15;;;410.40;1945.60;;;;;;5055711;28;20017;-67
2021/09/02 06:28:43;;;;;;;16.45;8.15;;;435.20;1945.60;;;;;;5055931;28;20505;-68
2021/09/02 06:31:08;;;;;;;27.27;8.32;;;435.30;1945.60;;;;;;5055422;28;20021;-66
2021/09/02 06:33:35;;;;;;;32.30;8.35;;;435.30;1945.60;;;;;;5055630;28;20481;-69
2021/09/02 06:36:01;;;;;;;25.75;8.70;;;435.40;1945.60;;;;;;5055693;28;20102;-72
2021/09/02 06:38:26;;;;;;;20.92;8.75;;;435.60;1920.00;;;;;;5055377;28;20033;-67
2021/09/02 06:40:52;;;;;;;41.78;10.68;;;435.60;1920.00;;;;;;5055423;28;20365;-72
2021/09/02 06:43:18;;;;;;;42.25;10.25;;;435.90;1920.00;;;;;;5055056;28;20064;-72
2021/09/02 06:45:44;;;;;;;33.33;11.43;;;436.00;1920.00;;;;;;5055134;28;20489;-65
2021/09/02 06:48:09;;;;;;;36.67;17.45;;;460.80;1920.00;;;;;;5055074;28;20459;-69
2021/09/02 06:50:35;;;;;;;62.22;39.97;;;461.00;1894.40;;;;;;5055334;28;20025;-69
2021/09/02 06:53:01;;;;;;;73.78;32.13;;;461.20;1868.80;;;;;;5054444;28;20111;-66
2021/09/02 06:55:26;;;;;;;52.63;18.15;;;461.50;1843.20;;;;;;5055341;28;20052;-71
2021/09/02 06:57:52;;;;;;;57.15;13.70;;;486.40;1792.00;;;;;;5055003;28;20112;-66
2021/09/02 07:00:18;;;;;;;63.88;12.65;;;486.80;1766.40;;;;;;5054934;28;20100;-69
2021/09/02 07:02:43;;;;;;;35.03;9.35;;;487.10;1740.80;;;;;;5054568;28;20033;-69
2021/09/02 07:05:11;;;;;;;34.95;7.68;;;487.30;1689.60;;;;;;5036628;28;20459;-73
2021/09/02 07:07:37;;;;;;;44.47;7.95;;;512.20;1664.00;;;;;;5036579;28;20052;-73
2021/09/02 07:10:04;;;;;;;30.45;7.97;;;512.50;1612.80;;;;;;5054976;28;20028;-71
2021/09/02 07:12:30;;;;;;;39.25;7.68;;;512.90;1587.20;;;;;;5054866;28;20024;-74
2021/09/02 07:14:56;;;;;;;33.92;9.18;;;537.80;1587.20;;;;;;5054826;28;20470;-74
2021/09/02 07:17:22;;;;;;;45.95;10.52;;;538.10;1561.60;;;;;;5036856;28;20041;-69
2021/09/02 07:19:48;;;;;;;63.90;10.98;;;538.40;1561.60;;;;;;5036663;28;20175;-72
2021/09/02 07:22:14;;;;;;;49.92;8.98;;;563.30;1561.60;;;;;;5054641;28;20045;-69
2021/09/02 07:24:39;;;;;;;21.02;7.53;;;563.60;1536.00;;;;;;5054607;28;20466;-72
2021/09/02 07:27:05;;;;;;;49.17;8.88;;;563.70;1510.40;;;;;;5054490;28;20035;-68
2021/09/02 07:29:32;;;;;;;129.40;13.60;;;563.90;1484.80;;;;;;5054020;28;20024;-72
2021/09/02 07:31:58;;;;;;;80.40;9.45;;;588.80;1484.80;;;;;;5054407;28;20535;-61
2021/09/02 07:34:24;;;;;;;95.97;11.73;;;589.00;1433.60;;;;;;5054256;28;20108;-66
2021/09/02 07:36:50;;;;;;;46.65;8.95;;;589.20;1433.60;;;;;;5054322;28;20025;-68
2021/09/02 07:39:16;;;;;;;17.00;6.20;;;589.50;1382.40;;;;;;5053627;28;20104;-70
2021/09/02 07:41:42;;;;;;;44.92;20.38;;;589.70;1356.80;;;;;;5053919;28;20090;-74
2021/09/02 07:44:08;;;;;;;59.38;25.30;;;614.50;1356.80;;;;;;5054270;28;20040;-69
2021/09/02 07:46:34;;;;;;;104.50;46.25;;;614.70;1331.20;;;;;;5054102;28;20378;-70
2021/09/02 07:49:00;;;;;;;76.07;32.25;;;615.10;1305.60;;;;;;5053567;28;20025;-73
2021/09/02 07:51:25;;;;;;;59.28;26.30;;;640.00;1254.40;;;;;;5035809;28;20025;-68
2021/09/02 07:53:51;;;;;;;40.63;9.80;;;640.20;1228.80;;;;;;5053398;28;20029;-67
2021/09/02 07:56:17;;;;;;;30.70;6.38;;;640.40;1203.20;;;;;;5054367;28;20043;-68
2021/09/02 07:58:43;;;;;;;231.80;22.65;;;640.60;1152.00;;;;;;5053902;28;20548;-68
2021/09/02 08:01:13;;;;;;;156.70;16.20;;;665.60;1126.40;;;;;;5053058;28;20036;-68
2021/09/02 08:03:39;;;;;;;30.73;5.80;;;665.70;1126.40;;;;;;5053251;28;20578;-68
2021/09/02 08:06:05;;;;;;;19.30;5.47;;;665.80;1126.40;;;;;;5053787;28;20037;-67
2021/09/02 08:08:31;;;;;;;18.90;4.72;;;665.80;1126.40;;;;;;5053584;28;20460;-68
2021/09/02 08:10:57;;;;;;;16.55;4.95;;;666.00;1075.20;;;;;;5052974;28;20021;-68
2021/09/02 08:13:23;;;;;;;40.28;6.10;;;666.30;1100.80;;;;;;5053673;28;20112;-69
2021/09/02 08:15:49;;;;;;;63.05;8.20;;;666.40;1024.00;;;;;;5053579;28;20063;-75
2021/09/02 08:18:14;;;;;;;800.72;75.40;;;691.30;1024.00;;;;;;5053914;28;20094;-77
2021/09/02 08:20:40;;;;;;;18.75;9.82;;;691.40;1024.00;;;;;;5054176;28;20066;-79
2021/09/02 08:23:07;;;;;;;12.55;5.47;;;691.40;972.80;;;;;;5053473;28;20033;-76
2021/09/02 08:25:33;;;;;;;34.53;7.05;;;691.50;998.40;;;;;;5053621;28;20110;-68
2021/09/02 08:27:59;;;;;;;16.65;4.45;;;691.50;1049.60;;;;;;5053638;28;20025;-71
2021/09/02 08:30:27;;;;;;;58.03;6.00;;;691.80;998.40;;;;;;5035619;28;20021;-75
2021/09/02 08:32:53;;;;;;;11.38;5.15;;;692.10;947.20;;;;;;5053438;28;20029;-73
